createdAt,value
2022-10-13T00:01:21.754Z,100654.78
2022-10-13T00:03:50.413Z,100649.50
2022-10-13T00:06:25.345Z,100655.09
2022-10-13T00:08:53.416Z,100658.22
2022-10-13T00:11:28.767Z,100651.31
2022-10-13T00:14:00.930Z,100651.16
2022-10-13T00:16:31.777Z,100653.63
2022-10-13T00:18:59.579Z,100653.38
2022-10-13T00:21:28.302Z,100661.34
2022-10-13T00:23:55.961Z,100654.63
2022-10-13T00:26:26.102Z,100649.28
2022-10-13T00:28:56.186Z,100647.41
2022-10-13T00:31:27.339Z,100649.22
2022-10-13T00:33:55.593Z,100658.06
2022-10-13T00:36:24.959Z,100658.38
2022-10-13T00:38:53.424Z,100657.63
2022-10-13T00:41:21.776Z,100652.31
2022-10-13T00:44:00.430Z,100652.06
2022-10-13T00:46:35.216Z,100642.78
2022-10-13T00:49:12.855Z,100642.78
2022-10-13T00:51:47.781Z,100640.97
2022-10-13T00:54:21.172Z,100649.38
2022-10-13T00:56:50.717Z,100649.22
2022-10-13T00:59:27.423Z,100642.00
2022-10-13T01:01:57.520Z,100643.13
2022-10-13T01:04:40.077Z,100638.78
2022-10-13T01:07:07.715Z,100637.72
2022-10-13T01:09:37.757Z,100631.50
2022-10-13T01:12:48.129Z,100624.56
2022-10-13T01:15:47.939Z,100626.31
2022-10-13T01:19:39.625Z,100625.34
2022-10-13T01:22:43.186Z,100622.09
2022-10-13T01:25:37.369Z,100623.31
2022-10-13T01:29:11.874Z,100618.91
2022-10-13T01:32:32.000Z,100623.41
2022-10-13T01:35:27.873Z,100626.72
2022-10-13T01:38:26.895Z,100617.78
2022-10-13T01:41:20.066Z,100614.06
2022-10-13T01:44:00.847Z,100609.66
2022-10-13T01:46:38.027Z,100615.44
2022-10-13T01:49:11.884Z,100609.13
2022-10-13T01:51:40.994Z,100610.59
2022-10-13T01:54:08.912Z,100613.13
2022-10-13T01:56:36.232Z,100617.28
2022-10-13T01:59:13.777Z,100617.75
2022-10-13T02:02:21.604Z,100615.81
2022-10-13T02:05:16.290Z,100620.91
2022-10-13T02:07:59.791Z,100627.63
2022-10-13T02:10:42.677Z,100623.03
2022-10-13T02:13:13.404Z,100622.88
2022-10-13T02:15:53.094Z,100627.28
2022-10-13T02:18:29.205Z,100628.75
2022-10-13T02:20:57.057Z,100631.63
2022-10-13T02:23:24.701Z,100629.75
2022-10-13T02:25:52.029Z,100629.59
2022-10-13T02:28:20.179Z,100636.47
2022-10-13T02:30:48.026Z,100629.59
2022-10-13T02:33:16.506Z,100623.94
2022-10-13T02:35:44.354Z,100633.25
2022-10-13T02:38:12.002Z,100627.84
2022-10-13T02:40:39.220Z,100625.31
2022-10-13T02:43:06.466Z,100626.41
2022-10-13T02:45:33.720Z,100637.78
2022-10-13T02:48:01.047Z,100623.88
2022-10-13T02:50:28.865Z,100634.38
2022-10-13T02:52:56.928Z,100628.19
2022-10-13T02:55:24.119Z,100625.31
2022-10-13T02:57:56.923Z,100621.03
2022-10-13T03:00:25.463Z,100625.00
2022-10-13T03:02:52.685Z,100628.75
2022-10-13T03:05:20.266Z,100619.66
2022-10-13T03:07:47.460Z,100618.53
2022-10-13T03:10:14.781Z,100604.97
2022-10-13T03:12:41.941Z,100600.53
2022-10-13T03:15:09.872Z,100591.63
2022-10-13T03:17:37.009Z,100592.34
2022-10-13T03:20:05.789Z,100590.63
2022-10-13T03:22:33.921Z,100589.00
2022-10-13T03:25:01.124Z,100588.91
2022-10-13T03:27:28.358Z,100575.63
2022-10-13T03:29:55.490Z,100578.72
2022-10-13T03:32:23.005Z,100569.06
2022-10-13T03:34:51.585Z,100566.13
2022-10-13T03:37:18.801Z,100560.97
2022-10-13T03:39:46.057Z,100552.50
2022-10-13T03:42:14.055Z,100557.91
2022-10-13T03:44:41.495Z,100551.63
2022-10-13T03:47:08.724Z,100547.09
2022-10-13T03:49:38.965Z,100556.72
2022-10-13T03:52:06.779Z,100557.44
2022-10-13T03:54:34.065Z,100563.41
2022-10-13T03:57:03.194Z,100560.56
2022-10-13T03:59:35.666Z,100566.97
2022-10-13T04:02:04.161Z,100572.66
2022-10-13T04:04:31.479Z,100571.03
2022-10-13T04:06:58.708Z,100571.03
2022-10-13T04:09:26.279Z,100570.88
2022-10-13T04:11:53.902Z,100573.00
2022-10-13T04:14:21.530Z,100579.25
2022-10-13T04:16:48.632Z,100574.97
2022-10-13T04:19:16.234Z,100579.56
2022-10-13T04:21:44.457Z,100580.28
2022-10-13T04:24:17.625Z,100575.47
2022-10-13T04:26:46.328Z,100566.59
2022-10-13T04:29:14.073Z,100570.72
2022-10-13T04:31:44.797Z,100571.34
2022-10-13T04:34:12.287Z,100569.56
2022-10-13T04:36:39.675Z,100571.00
2022-10-13T04:39:07.073Z,100574.47
2022-10-13T04:41:35.605Z,100576.06
2022-10-13T04:44:02.797Z,100561.25
2022-10-13T04:46:30.693Z,100567.66
2022-10-13T04:48:58.350Z,100568.31
2022-10-13T04:51:32.276Z,100576.06
2022-10-13T04:54:01.573Z,100573.47
2022-10-13T04:56:29.653Z,100572.41
2022-10-13T04:59:02.555Z,100572.66
2022-10-13T05:01:29.914Z,100568.72
2022-10-13T05:04:01.985Z,100570.88
2022-10-13T05:06:53.255Z,100569.47
2022-10-13T05:09:26.318Z,100568.59
2022-10-13T05:11:55.106Z,100572.34
2022-10-13T05:14:23.385Z,100567.09
2022-10-13T05:16:50.610Z,100569.97
2022-10-13T05:19:17.909Z,100579.75
2022-10-13T05:21:45.145Z,100579.81
2022-10-13T05:24:13.698Z,100574.81
2022-10-13T05:26:41.770Z,100581.84
2022-10-13T05:29:09.206Z,100582.19
2022-10-13T05:31:36.584Z,100570.94
2022-10-13T05:34:03.982Z,100580.06
2022-10-13T05:36:34.758Z,100575.97
2022-10-13T05:39:07.777Z,100566.34
2022-10-13T05:41:35.356Z,100566.19
2022-10-13T05:44:09.265Z,100565.31
2022-10-13T05:46:42.513Z,100558.31
2022-10-13T05:49:10.858Z,100563.63
2022-10-13T05:51:50.950Z,100565.63
2022-10-13T05:54:54.081Z,100561.59
2022-10-13T05:57:49.788Z,100556.69
2022-10-13T06:00:20.210Z,100562.63
2022-10-13T06:03:05.140Z,100566.56
2022-10-13T06:05:33.255Z,100571.06
2022-10-13T06:08:00.782Z,100568.81
2022-10-13T06:10:28.344Z,100577.00
2022-10-13T06:12:55.481Z,100567.63
2022-10-13T06:15:27.806Z,100563.84
2022-10-13T06:17:56.797Z,100562.75
2022-10-13T06:20:24.048Z,100569.16
2022-10-13T06:22:51.309Z,100567.72
2022-10-13T06:25:18.602Z,100571.59
2022-10-13T06:27:45.900Z,100578.84
2022-10-13T06:30:13.226Z,100576.44
2022-10-13T06:32:41.169Z,100572.34
2022-10-13T06:35:09.148Z,100565.72
2022-10-13T06:37:36.671Z,100573.19
2022-10-13T06:40:05.539Z,100576.03
2022-10-13T06:42:34.807Z,100560.56
2022-10-13T06:45:11.188Z,100564.53
2022-10-13T06:47:41.179Z,100558.59
2022-10-13T06:50:09.068Z,100567.47
2022-10-13T06:52:37.117Z,100572.56
2022-10-13T06:55:06.127Z,100571.94
2022-10-13T06:57:34.183Z,100569.72
2022-10-13T07:00:06.049Z,100571.25
2022-10-13T07:02:34.405Z,100577.53
2022-10-13T07:05:01.651Z,100574.72
2022-10-13T07:07:28.882Z,100574.72
2022-10-13T07:09:56.485Z,100572.09
2022-10-13T07:12:23.686Z,100572.94
2022-10-13T07:14:50.947Z,100574.50
2022-10-13T07:17:18.990Z,100571.28
2022-10-13T07:19:48.566Z,100563.72
2022-10-13T07:22:16.139Z,100563.41
2022-10-13T07:24:43.444Z,100566.63
2022-10-13T07:27:10.738Z,100566.03
2022-10-13T07:29:38.088Z,100558.59
2022-10-13T07:32:06.061Z,100558.84
2022-10-13T07:34:33.346Z,100557.59
2022-10-13T07:37:00.566Z,100553.47
2022-10-13T07:39:27.817Z,100552.91
2022-10-13T07:41:54.963Z,100554.09
2022-10-13T07:44:22.434Z,100556.03
2022-10-13T07:46:49.772Z,100552.63
2022-10-13T07:49:17.119Z,100555.78
2022-10-13T07:51:44.694Z,100550.22
2022-10-13T07:54:12.344Z,100543.97
2022-10-13T07:56:39.876Z,100549.41
2022-10-13T07:59:08.187Z,100550.59
2022-10-13T08:01:35.461Z,100544.41
2022-10-13T08:04:03.582Z,100541.09
2022-10-13T08:06:31.022Z,100536.22
2022-10-13T08:09:00.524Z,100539.28
2022-10-13T08:11:27.862Z,100542.19
2022-10-13T08:13:56.011Z,100543.59
2022-10-13T08:16:23.517Z,100536.41
2022-10-13T08:18:51.087Z,100548.97
2022-10-13T08:24:14.546Z,100550.84
2022-10-13T08:26:44.126Z,100546.50
2022-10-13T08:29:28.198Z,100544.38
2022-10-13T08:31:56.014Z,100540.56
2022-10-13T08:34:25.108Z,100535.59
2022-10-13T08:36:56.227Z,100536.47
2022-10-13T08:39:25.466Z,100530.75
2022-10-13T08:41:53.541Z,100533.91
2022-10-13T08:45:06.397Z,100536.56
2022-10-13T08:47:53.812Z,100526.69
2022-10-13T08:50:29.109Z,100521.88
2022-10-13T08:53:21.730Z,100530.13
2022-10-13T08:56:09.466Z,100521.47
2022-10-13T08:58:41.351Z,100529.53
2022-10-13T09:01:31.720Z,100520.91
2022-10-13T09:04:33.045Z,100519.13
2022-10-13T09:07:09.518Z,100515.63
2022-10-13T09:09:38.555Z,100516.59
2022-10-13T09:12:07.710Z,100520.09
2022-10-13T09:14:39.913Z,100519.53
2022-10-13T09:17:20.172Z,100520.72
2022-10-13T09:20:19.145Z,100516.25
2022-10-13T09:23:18.606Z,100517.03
2022-10-13T09:25:52.031Z,100509.38
2022-10-13T09:28:28.134Z,100512.66
2022-10-13T09:31:25.585Z,100510.59
2022-10-13T09:34:18.738Z,100517.50
2022-10-13T09:37:17.915Z,100513.22
2022-10-13T09:39:45.107Z,100514.84
2022-10-13T09:42:31.637Z,100505.25
2022-10-13T09:45:17.106Z,100513.94
2022-10-13T09:48:20.361Z,100508.94
2022-10-13T09:50:55.397Z,100504.00
2022-10-13T09:53:40.802Z,100491.50
2022-10-13T09:56:40.676Z,100492.59
2022-10-13T09:59:33.044Z,100495.41
2022-10-13T10:02:22.551Z,100487.84
2022-10-13T10:04:55.142Z,100480.44
2022-10-13T10:07:30.767Z,100476.91
2022-10-13T10:10:15.552Z,100480.22
2022-10-13T10:12:44.701Z,100477.59
2022-10-13T10:15:49.717Z,100483.78
2022-10-13T10:19:00.384Z,100483.97
2022-10-13T10:21:58.318Z,100478.13
2022-10-13T10:25:01.911Z,100463.72
2022-10-13T10:28:13.015Z,100462.19
2022-10-13T10:30:52.604Z,100457.97
2022-10-13T10:33:44.845Z,100455.38
2022-10-13T10:36:22.410Z,100458.63
2022-10-13T10:39:30.366Z,100450.78
2022-10-13T10:42:10.012Z,100449.91
2022-10-13T10:44:43.515Z,100450.59
2022-10-13T10:47:28.451Z,100445.28
2022-10-13T10:50:04.081Z,100446.06
2022-10-13T10:53:13.535Z,100437.22
2022-10-13T10:56:15.703Z,100431.97
2022-10-13T10:59:26.828Z,100426.69
2022-10-13T11:02:08.910Z,100423.16
2022-10-13T11:04:48.228Z,100418.03
2022-10-13T11:07:24.451Z,100421.50
2022-10-13T11:09:51.534Z,100415.63
2022-10-13T11:12:22.209Z,100412.31
2022-10-13T11:15:24.955Z,100410.03
2022-10-13T11:17:53.586Z,100405.63
2022-10-13T11:20:40.563Z,100407.06
2022-10-13T11:23:13.796Z,100395.66
2022-10-13T11:25:45.580Z,100394.19
2022-10-13T11:28:22.167Z,100391.78
2022-10-13T11:30:56.572Z,100391.19
2022-10-13T11:33:38.604Z,100381.72
2022-10-13T11:36:50.362Z,100379.22
2022-10-13T11:42:37.500Z,100367.94
2022-10-13T11:45:28.393Z,100374.22
2022-10-13T11:48:40.020Z,100357.78
2022-10-13T11:51:25.842Z,100356.41
2022-10-13T11:54:34.678Z,100354.78
2022-10-13T11:57:02.019Z,100348.97
2022-10-13T11:59:37.551Z,100347.00
2022-10-13T12:02:10.729Z,100346.41
2022-10-13T12:04:45.678Z,100339.09
2022-10-13T12:07:16.096Z,100345.50
2022-10-13T12:09:55.112Z,100342.66
2022-10-13T12:12:24.308Z,100348.34
2022-10-13T12:14:59.874Z,100344.41
2022-10-13T12:17:32.636Z,100338.25
2022-10-13T12:20:20.069Z,100342.09
2022-10-13T12:22:53.363Z,100332.78
2022-10-13T12:25:25.959Z,100328.81
2022-10-13T12:28:01.092Z,100324.84
2022-10-13T12:30:37.958Z,100317.00
2022-10-13T12:33:32.538Z,100323.47
2022-10-13T12:36:18.273Z,100310.84
2022-10-13T12:38:55.071Z,100307.00
2022-10-13T12:41:33.700Z,100306.06
2022-10-13T12:44:05.591Z,100307.91
2022-10-13T12:46:48.908Z,100298.84
2022-10-13T12:49:22.668Z,100296.41
2022-10-13T12:52:20.282Z,100298.28
2022-10-13T12:54:55.798Z,100300.75
2022-10-13T12:57:36.056Z,100290.91
2022-10-13T13:00:26.995Z,100291.16
2022-10-13T13:02:59.112Z,100289.31
2022-10-13T13:05:50.777Z,100290.06
2022-10-13T13:08:31.789Z,100289.03
2022-10-13T13:11:19.794Z,100280.66
2022-10-13T13:13:48.322Z,100277.13
2022-10-13T13:16:21.412Z,100273.69
2022-10-13T13:18:51.180Z,100273.66
2022-10-13T13:21:20.283Z,100268.28
2022-10-13T13:23:52.862Z,100273.56
2022-10-13T13:26:25.028Z,100267.38
2022-10-13T13:28:55.851Z,100263.81
2022-10-13T13:31:26.178Z,100263.81
2022-10-13T13:33:53.882Z,100267.09
2022-10-13T13:36:26.075Z,100257.38
2022-10-13T13:38:54.734Z,100253.03
2022-10-13T13:41:22.629Z,100255.84
2022-10-13T13:43:50.290Z,100250.47
2022-10-13T13:46:22.445Z,100240.69
2022-10-13T13:48:50.073Z,100238.13
2022-10-13T13:51:17.864Z,100240.81
2022-10-13T13:53:46.340Z,100236.56
2022-10-13T13:56:18.639Z,100229.34
2022-10-13T13:58:46.773Z,100243.22
2022-10-13T14:01:15.552Z,100229.00
2022-10-13T14:03:42.795Z,100234.19
2022-10-13T14:06:21.309Z,100232.25
2022-10-13T14:08:49.690Z,100228.78
2022-10-13T14:11:17.069Z,100224.41
2022-10-13T14:13:44.310Z,100223.47
2022-10-13T14:16:17.986Z,100219.94
2022-10-13T14:18:45.288Z,100219.16
2022-10-13T14:21:12.711Z,100219.38
2022-10-13T14:23:45.459Z,100213.22
2022-10-13T14:26:14.363Z,100209.50
2022-10-13T14:28:43.595Z,100206.66
2022-10-13T14:31:12.217Z,100211.03
2022-10-13T14:33:43.162Z,100211.03
2022-10-13T14:36:10.724Z,100209.31
2022-10-13T14:38:37.995Z,100214.66
2022-10-13T14:41:07.161Z,100203.91
2022-10-13T14:43:34.445Z,100206.66
2022-10-13T14:46:06.553Z,100203.25
2022-10-13T14:48:35.981Z,100203.22
2022-10-13T14:51:09.980Z,100206.03
2022-10-13T14:53:42.110Z,100192.06
2022-10-13T14:56:29.533Z,100184.66
2022-10-13T14:59:01.248Z,100176.25
2022-10-13T15:01:41.319Z,100170.22
2022-10-13T15:04:09.207Z,100164.56
2022-10-13T15:06:39.222Z,100164.22
2022-10-13T15:11:41.153Z,100175.13
2022-10-13T15:14:09.781Z,100174.19
2022-10-13T15:16:37.839Z,100175.31
2022-10-13T15:19:05.701Z,100171.53
2022-10-13T15:21:33.028Z,100173.13
2022-10-13T15:24:01.462Z,100177.47
2022-10-13T15:26:28.817Z,100181.09
2022-10-13T15:28:56.135Z,100176.69
2022-10-13T15:31:24.412Z,100177.34
2022-10-13T15:33:54.018Z,100183.03
2022-10-13T15:36:23.351Z,100180.09
2022-10-13T15:38:52.001Z,100187.94
2022-10-13T15:41:19.800Z,100187.59
2022-10-13T15:43:47.882Z,100181.56
2022-10-13T15:46:21.501Z,100177.19
2022-10-13T15:48:51.621Z,100179.78
2022-10-13T15:51:21.567Z,100172.53
2022-10-13T15:53:49.162Z,100178.31
2022-10-13T15:56:17.492Z,100174.34
2022-10-13T15:58:45.506Z,100173.47
2022-10-13T16:01:14.457Z,100174.34
2022-10-13T16:03:42.670Z,100170.19
2022-10-13T16:06:13.293Z,100173.31
2022-10-13T16:08:44.201Z,100172.88
2022-10-13T16:11:18.003Z,100174.13
2022-10-13T16:13:51.929Z,100180.69
2022-10-13T16:16:20.809Z,100182.97
2022-10-13T16:18:50.766Z,100188.16
2022-10-13T16:21:23.794Z,100186.31
2022-10-13T16:23:51.156Z,100199.41
2022-10-13T16:26:19.187Z,100191.94
2022-10-13T16:28:46.960Z,100196.06
2022-10-13T16:31:16.965Z,100195.91
2022-10-13T16:33:45.818Z,100194.13
2022-10-13T16:36:19.577Z,100196.50
2022-10-13T16:38:57.182Z,100203.97
2022-10-13T16:41:24.552Z,100202.81
2022-10-13T16:43:51.935Z,100191.94
2022-10-13T16:46:22.350Z,100187.31
2022-10-13T16:48:50.133Z,100180.94
2022-10-13T16:51:26.507Z,100169.25
2022-10-13T16:54:03.911Z,100158.34
2022-10-13T16:56:32.799Z,100160.75
2022-10-13T16:59:04.225Z,100160.53
2022-10-13T17:01:32.807Z,100161.19
2022-10-13T17:04:00.666Z,100165.44
2022-10-13T17:06:29.129Z,100165.34
2022-10-13T17:09:03.194Z,100174.09
2022-10-13T17:11:34.753Z,100184.69
2022-10-13T17:14:05.665Z,100184.53
2022-10-13T17:16:34.121Z,100191.41
2022-10-13T17:19:01.942Z,100192.13
2022-10-13T17:21:36.790Z,100202.53
2022-10-13T17:24:06.284Z,100208.53
2022-10-13T17:26:33.646Z,100211.84
2022-10-13T17:29:01.111Z,100217.91
2022-10-13T17:31:28.481Z,100209.84
2022-10-13T17:33:55.707Z,100206.09
2022-10-13T17:36:28.031Z,100213.78
2022-10-13T17:38:56.870Z,100217.09
2022-10-13T17:41:24.709Z,100218.69
2022-10-13T17:43:52.508Z,100218.47
2022-10-13T17:46:37.328Z,100221.06
2022-10-13T17:49:07.966Z,100223.56
2022-10-13T17:51:35.445Z,100227.16
2022-10-13T17:54:03.224Z,100227.16
2022-10-13T17:56:30.632Z,100221.69
2022-10-13T17:58:59.115Z,100217.19
2022-10-13T18:01:31.780Z,100221.41
2022-10-13T18:04:05.420Z,100220.41
2022-10-13T18:06:40.363Z,100216.75
2022-10-13T18:09:18.106Z,100216.66
2022-10-13T18:11:50.566Z,100211.28
2022-10-13T18:14:22.580Z,100217.31
2022-10-13T18:16:52.189Z,100218.94
2022-10-13T18:19:21.190Z,100217.94
2022-10-13T18:21:49.529Z,100207.19
2022-10-13T18:24:16.781Z,100212.31
2022-10-13T18:26:44.385Z,100218.34
2022-10-13T18:29:13.198Z,100213.84
2022-10-13T18:31:42.094Z,100219.16
2022-10-13T18:34:15.544Z,100220.97
2022-10-13T18:36:50.678Z,100229.72
2022-10-13T18:39:24.980Z,100223.31
2022-10-13T18:41:54.530Z,100226.56
2022-10-13T18:44:23.993Z,100222.09
2022-10-13T18:46:53.781Z,100222.78
2022-10-13T18:49:23.845Z,100232.22
2022-10-13T18:51:51.961Z,100221.50
2022-10-13T18:54:19.180Z,100222.25
2022-10-13T18:56:46.425Z,100224.75
2022-10-13T18:59:13.596Z,100222.81
2022-10-13T19:01:41.028Z,100223.47
2022-10-13T19:04:08.719Z,100207.44
2022-10-13T19:06:37.472Z,100217.88
2022-10-13T19:09:11.427Z,100221.25
2022-10-13T19:11:39.198Z,100225.34
2022-10-13T19:14:11.304Z,100226.41
2022-10-13T19:16:41.649Z,100225.84
2022-10-13T19:19:09.173Z,100231.78
2022-10-13T19:21:38.437Z,100230.50
2022-10-13T19:24:08.145Z,100234.69
2022-10-13T19:26:37.163Z,100223.13
2022-10-13T19:29:10.444Z,100221.00
2022-10-13T19:31:39.768Z,100218.28
2022-10-13T19:34:12.629Z,100219.91
2022-10-13T19:36:45.447Z,100222.44
2022-10-13T19:39:23.961Z,100220.50
2022-10-13T19:41:54.744Z,100215.97
2022-10-13T19:44:24.947Z,100215.00
2022-10-13T19:46:53.767Z,100216.59
2022-10-13T19:49:25.944Z,100227.81
2022-10-13T19:51:54.084Z,100229.75
2022-10-13T19:54:22.325Z,100227.94
2022-10-13T19:56:50.437Z,100230.69
2022-10-13T19:59:18.993Z,100231.28
2022-10-13T20:43:59.242Z,100247.94
2022-10-13T20:46:27.313Z,100247.81
2022-10-13T20:49:13.027Z,100253.84
2022-10-13T20:51:42.866Z,100257.22
2022-10-13T20:54:13.786Z,100250.13
2022-10-13T20:56:42.184Z,100257.81
2022-10-13T20:59:14.397Z,100250.84
2022-10-13T21:01:42.210Z,100251.66
2022-10-13T21:04:09.738Z,100245.50
2022-10-13T21:06:37.961Z,100248.97
2022-10-13T21:09:06.219Z,100251.53
2022-10-13T21:11:34.959Z,100247.09
2022-10-13T21:14:08.358Z,100251.19
2022-10-13T21:16:37.426Z,100264.28
2022-10-13T21:19:09.428Z,100258.94
2022-10-13T21:21:36.885Z,100262.34
2022-10-13T21:24:07.465Z,100264.72
2022-10-13T21:26:36.116Z,100275.22
2022-10-13T21:29:04.170Z,100271.63
2022-10-13T21:31:31.743Z,100274.38
2022-10-13T21:33:59.201Z,100268.25
2022-10-13T21:36:31.061Z,100267.53
2022-10-13T21:39:03.905Z,100264.97
2022-10-13T21:41:32.923Z,100250.00
2022-10-13T21:44:00.173Z,100253.56
2022-10-13T21:46:36.269Z,100251.78
2022-10-13T21:49:05.983Z,100254.28
2022-10-13T21:51:39.152Z,100255.78
2022-10-13T21:54:11.325Z,100253.09
2022-10-13T21:56:40.405Z,100253.03
2022-10-13T21:59:09.773Z,100250.13
2022-10-13T22:01:36.975Z,100255.31
2022-10-13T22:04:13.269Z,100266.34
2022-10-13T22:06:40.652Z,100266.06
2022-10-13T22:09:08.324Z,100264.13
2022-10-13T22:11:37.855Z,100267.44
2022-10-13T22:14:11.677Z,100262.81
2022-10-13T22:16:43.856Z,100261.84
2022-10-13T22:19:11.413Z,100258.19
2022-10-13T22:21:46.965Z,100253.81
2022-10-13T22:24:18.462Z,100252.81
2022-10-13T22:26:48.200Z,100257.72
2022-10-13T22:29:21.052Z,100258.50
2022-10-13T22:31:50.165Z,100254.09
2022-10-13T22:34:18.047Z,100257.00
2022-10-13T22:36:45.592Z,100255.38
2022-10-13T22:39:14.532Z,100253.00
2022-10-13T22:41:42.052Z,100252.81
2022-10-13T22:44:09.394Z,100249.19
2022-10-13T22:46:38.301Z,100248.09
2022-10-13T22:49:07.227Z,100245.47
2022-10-13T22:51:36.445Z,100241.19
2022-10-13T22:54:04.870Z,100244.66
2022-10-13T22:56:35.078Z,100233.03
2022-10-13T22:59:08.141Z,100240.69
2022-10-13T23:01:36.109Z,100237.84
2022-10-13T23:04:03.863Z,100237.66
2022-10-13T23:06:34.997Z,100229.72
2022-10-13T23:09:07.104Z,100240.06
2022-10-13T23:11:35.078Z,100232.88
2022-10-13T23:14:06.037Z,100225.66
2022-10-13T23:16:33.391Z,100223.84
2022-10-13T23:19:00.749Z,100220.19
2022-10-13T23:21:30.302Z,100231.91
2022-10-13T23:24:05.801Z,100226.78
2022-10-13T23:26:34.617Z,100223.66
2022-10-13T23:29:03.477Z,100223.50
2022-10-13T23:31:30.924Z,100227.09
2022-10-13T23:33:58.790Z,100225.34
2022-10-13T23:36:30.598Z,100231.91
2022-10-13T23:39:06.544Z,100226.53
2022-10-13T23:41:34.078Z,100224.13
2022-10-13T23:44:01.367Z,100227.53
2022-10-13T23:46:28.630Z,100220.94
2022-10-13T23:48:56.708Z,100226.34
2022-10-13T23:51:26.126Z,100221.56
2022-10-13T23:53:54.413Z,100218.44
2022-10-13T23:56:22.031Z,100217.53
2022-10-13T23:58:50.585Z,100216.78
